Time;durP1;ratioP1;P1;durP2;ratioP2;P2;SDS_P1;SDS_P2;PMS_P1;PMS_P2;Temp;Humidity;BMP_temperature;BMP_pressure;BME280_temperature;BME280_humidity;BME280_pressure;Samples;Min_cycle;Max_cycle;Signal;HPM_P1;HPM_P2
2023/08/08 00:01:24;;;;;;;8.20;4.20;;;;;;;16.64;100.00;100578.96;110233;1238;63368;-72
2023/08/08 00:03:53;;;;;;;5.40;3.50;;;;;;;16.77;100.00;100579.62;110263;1239;62788;-71
2023/08/08 00:06:21;;;;;;;5.50;4.00;;;;;;;16.75;100.00;100583.10;110209;1238;60214;-70
2023/08/08 00:08:50;;;;;;;6.30;3.80;;;;;;;16.79;100.00;100582.77;110241;1238;64044;-70
2023/08/08 00:11:20;;;;;;;7.20;4.10;;;;;;;16.86;100.00;100584.30;110210;1238;61478;-70
2023/08/08 00:13:48;;;;;;;5.00;3.50;;;;;;;16.91;100.00;100586.64;110249;1238;69603;-71
2023/08/08 00:16:17;;;;;;;5.00;3.40;;;;;;;16.94;100.00;100585.59;110199;1238;62894;-71
2023/08/08 00:18:46;;;;;;;6.10;3.30;;;;;;;16.98;100.00;100587.17;110190;1238;58632;-71
2023/08/08 00:21:15;;;;;;;4.80;3.70;;;;;;;17.00;100.00;100591.37;110201;1237;61049;-70
2023/08/08 00:23:44;;;;;;;6.20;3.30;;;;;;;16.93;100.00;100578.87;110069;1239;74717;-72
2023/08/08 00:26:13;;;;;;;5.70;3.40;;;;;;;16.94;100.00;100583.52;110133;1237;72429;-72
2023/08/08 00:28:41;;;;;;;5.70;3.60;;;;;;;16.95;100.00;100575.51;110045;1238;70407;-72
2023/08/08 00:31:10;;;;;;;6.30;3.30;;;;;;;16.95;100.00;100572.81;110184;1238;62888;-72
2023/08/08 00:33:39;;;;;;;6.40;3.40;;;;;;;16.99;100.00;100567.49;110158;1239;57788;-71
2023/08/08 00:36:08;;;;;;;5.40;3.50;;;;;;;16.99;100.00;100565.73;110082;1238;60001;-72
2023/08/08 00:38:36;;;;;;;5.50;3.10;;;;;;;16.99;100.00;100562.80;110083;1238;74825;-72
2023/08/08 00:41:05;;;;;;;4.80;2.80;;;;;;;16.99;100.00;100563.80;110066;1239;61793;-71
2023/08/08 00:43:35;;;;;;;5.20;2.80;;;;;;;16.94;100.00;100564.91;110149;1237;59182;-71
2023/08/08 00:46:04;;;;;;;3.80;2.70;;;;;;;16.76;100.00;100566.01;110191;1238;62325;-71
2023/08/08 00:48:33;;;;;;;4.30;2.70;;;;;;;16.51;100.00;100574.77;110091;1238;57820;-71
2023/08/08 00:51:02;;;;;;;4.20;2.50;;;;;;;16.42;100.00;100573.44;110097;1237;60140;-73
2023/08/08 00:53:31;;;;;;;4.00;2.70;;;;;;;16.31;100.00;100567.41;109975;1242;63227;-72
2023/08/08 00:56:00;;;;;;;5.20;2.40;;;;;;;16.20;100.00;100563.44;110120;1238;72793;-72
2023/08/08 00:58:29;;;;;;;6.00;2.70;;;;;;;16.20;100.00;100560.66;110059;1238;60864;-71
2023/08/08 01:00:59;;;;;;;5.30;2.90;;;;;;;16.21;100.00;100561.46;110061;1237;72890;-71
2023/08/08 01:03:29;;;;;;;6.20;2.90;;;;;;;16.25;100.00;100563.14;110020;1241;62855;-72
2023/08/08 01:06:16;;;;;;;4.00;2.70;;;;;;;16.26;100.00;100563.44;110154;1237;60864;-71
2023/08/08 01:09:24;;;;;;;4.80;2.50;;;;;;;16.26;100.00;100560.27;110098;1238;73342;-71
2023/08/08 01:11:57;;;;;;;4.00;2.40;;;;;;;16.23;100.00;100558.41;109592;1247;71854;-71
2023/08/08 01:14:30;;;;;;;5.20;2.20;;;;;;;16.26;100.00;100568.18;110018;1238;59654;-70
2023/08/08 01:16:59;;;;;;;3.10;2.10;;;;;;;16.31;100.00;100578.05;109946;1238;72184;-72
2023/08/08 01:19:34;;;;;;;3.90;2.20;;;;;;;16.54;100.00;100590.54;109923;1241;63711;-72
2023/08/08 01:22:09;;;;;;;4.90;2.60;;;;;;;16.61;100.00;100598.70;110067;1238;61621;-72
2023/08/08 01:24:38;;;;;;;5.20;3.00;;;;;;;16.65;100.00;100604.98;110176;1238;74256;-72
2023/08/08 01:27:08;;;;;;;4.90;3.20;;;;;;;16.70;100.00;100605.42;109939;1238;71499;-72
2023/08/08 01:29:37;;;;;;;6.10;3.10;;;;;;;16.71;100.00;100604.28;110152;1238;70670;-72
2023/08/08 01:32:08;;;;;;;4.90;3.20;;;;;;;16.69;100.00;100606.73;110057;1238;73751;-72
2023/08/08 01:34:37;;;;;;;6.00;3.10;;;;;;;16.69;100.00;100613.76;110054;1241;58304;-73
2023/08/08 01:37:28;;;;;;;4.90;3.30;;;;;;;16.71;100.00;100626.10;110033;1238;60445;-72
2023/08/08 01:40:01;;;;;;;4.60;3.10;;;;;;;16.65;100.00;100636.71;109930;1241;64546;-72
2023/08/08 01:42:32;;;;;;;5.20;3.40;;;;;;;16.58;100.00;100649.12;109859;1241;60683;-71
2023/08/08 01:45:02;;;;;;;3.90;2.70;;;;;;;16.51;100.00;100660.20;109932;1239;68665;-71
2023/08/08 01:47:31;;;;;;;5.70;2.90;;;;;;;16.44;100.00;100660.17;110107;1239;74168;-71
2023/08/08 01:49:59;;;;;;;6.40;2.90;;;;;;;16.44;100.00;100665.08;110035;1238;62272;-71
2023/08/08 01:52:28;;;;;;;5.60;3.10;;;;;;;16.45;100.00;100664.83;110132;1239;58341;-71
2023/08/08 01:54:57;;;;;;;5.70;3.10;;;;;;;16.53;100.00;100668.48;110040;1238;71819;-70
2023/08/08 01:57:27;;;;;;;5.10;2.60;;;;;;;16.56;100.00;100670.13;110068;1238;70163;-73
2023/08/08 01:59:55;;;;;;;5.50;3.00;;;;;;;16.60;100.00;100669.67;109991;1237;70633;-74
2023/08/08 02:02:24;;;;;;;4.20;2.40;;;;;;;16.62;100.00;100671.75;110063;1238;63509;-72
2023/08/08 02:04:53;;;;;;;5.90;2.40;;;;;;;16.70;100.00;100673.08;110042;1239;62989;-74
2023/08/08 02:07:22;;;;;;;6.70;3.00;;;;;;;16.70;100.00;100666.26;110158;1238;58345;-75
2023/08/08 02:09:51;;;;;;;4.30;2.30;;;;;;;16.70;100.00;100664.15;110100;1238;63518;-75
2023/08/08 02:12:20;;;;;;;3.70;2.80;;;;;;;16.69;100.00;100662.28;109958;1238;72103;-73
2023/08/08 02:14:48;;;;;;;3.70;2.60;;;;;;;16.65;100.00;100653.80;110108;1237;70790;-72
2023/08/08 02:17:17;;;;;;;4.10;2.80;;;;;;;16.61;100.00;100659.55;109997;1237;64008;-72
2023/08/08 02:19:46;;;;;;;5.50;2.40;;;;;;;16.66;100.00;100672.39;110230;1238;58323;-67
2023/08/08 02:22:15;;;;;;;3.90;2.20;;;;;;;16.66;100.00;100677.91;110240;1238;58822;-66
2023/08/08 02:24:44;;;;;;;4.60;2.40;;;;;;;16.64;100.00;100679.44;110210;1238;74756;-68
2023/08/08 02:27:12;;;;;;;3.10;2.20;;;;;;;16.60;100.00;100676.38;110024;1237;73268;-68
2023/08/08 02:29:41;;;;;;;3.30;2.30;;;;;;;16.53;100.00;100672.84;110162;1237;59742;-67
2023/08/08 02:32:10;;;;;;;5.60;2.40;;;;;;;16.44;100.00;100669.85;110127;1239;63138;-65
2023/08/08 02:34:39;;;;;;;3.20;2.40;;;;;;;16.38;100.00;100673.31;110305;1238;61934;-64
2023/08/08 02:37:08;;;;;;;4.50;2.10;;;;;;;16.34;100.00;100673.64;110058;1236;61545;-66
2023/08/08 02:39:37;;;;;;;5.30;2.30;;;;;;;16.39;100.00;100676.86;110188;1237;74699;-67
2023/08/08 02:42:06;;;;;;;3.90;2.20;;;;;;;16.35;100.00;100675.89;110264;1236;72815;-66
2023/08/08 02:44:35;;;;;;;3.20;2.20;;;;;;;16.33;100.00;100682.39;110145;1238;71259;-66
2023/08/08 02:47:04;;;;;;;3.80;2.00;;;;;;;16.27;100.00;100691.52;110081;1238;74954;-65
2023/08/08 02:49:33;;;;;;;4.70;2.30;;;;;;;16.23;100.00;100695.13;110120;1238;64081;-66
2023/08/08 02:52:02;;;;;;;3.50;2.00;;;;;;;16.22;100.00;100697.71;110111;1239;58220;-67
2023/08/08 02:54:33;;;;;;;3.40;2.20;;;;;;;16.21;100.00;100691.98;110119;1239;64515;-66
2023/08/08 02:57:02;;;;;;;3.00;2.00;;;;;;;16.21;100.00;100689.64;110171;1237;71010;-66
2023/08/08 02:59:31;;;;;;;3.80;1.90;;;;;;;16.23;100.00;100691.64;110073;1237;70213;-65
2023/08/08 03:02:00;;;;;;;4.10;1.90;;;;;;;16.19;100.00;100701.33;110037;1237;74087;-67
2023/08/08 03:04:30;;;;;;;3.00;2.00;;;;;;;16.09;100.00;100695.21;110121;1237;62694;-66
2023/08/08 03:07:01;;;;;;;2.70;1.80;;;;;;;16.08;100.00;100700.42;110050;1237;61767;-67
2023/08/08 03:09:30;;;;;;;3.20;1.90;;;;;;;16.12;100.00;100697.19;110079;1239;65780;-67
2023/08/08 03:12:00;;;;;;;5.20;2.10;;;;;;;16.12;100.00;100695.64;110099;1238;61512;-72
2023/08/08 03:14:29;;;;;;;4.20;2.10;;;;;;;16.15;100.00;100702.31;110028;1238;69356;-73
2023/08/08 03:16:59;;;;;;;3.20;1.90;;;;;;;16.16;100.00;100704.18;109984;1241;63125;-71
2023/08/08 03:19:29;;;;;;;2.70;1.90;;;;;;;16.18;100.00;100710.88;109969;1239;57843;-71
2023/08/08 03:21:58;;;;;;;3.30;1.90;;;;;;;16.16;100.00;100719.99;110133;1239;60148;-70
2023/08/08 03:24:27;;;;;;;2.40;1.90;;;;;;;16.13;100.00;100719.04;109968;1238;75248;-72
2023/08/08 03:26:56;;;;;;;4.20;2.00;;;;;;;16.15;100.00;100720.47;110186;1238;61910;-70
2023/08/08 03:29:25;;;;;;;4.70;2.00;;;;;;;16.18;100.00;100715.83;110219;1236;58986;-72
2023/08/08 03:31:55;;;;;;;3.50;2.00;;;;;;;16.12;100.00;100714.41;110097;1238;62219;-70
2023/08/08 03:34:25;;;;;;;6.90;2.60;;;;;;;16.16;100.00;100714.92;110065;1239;58246;-72
2023/08/08 03:36:54;;;;;;;4.10;2.20;;;;;;;16.22;100.00;100714.40;110063;1238;58048;-71
2023/08/08 03:39:23;;;;;;;4.90;2.00;;;;;;;16.27;100.00;100715.27;110164;1237;73478;-71
2023/08/08 03:41:52;;;;;;;3.10;2.20;;;;;;;16.32;100.00;100719.77;110152;1238;72871;-72
2023/08/08 03:44:20;;;;;;;4.00;2.10;;;;;;;16.40;100.00;100721.41;109973;1237;70027;-71
2023/08/08 03:46:50;;;;;;;5.50;1.90;;;;;;;16.43;100.00;100725.27;110155;1239;64273;-72
2023/08/08 03:49:28;;;;;;;2.90;2.00;;;;;;;16.40;100.00;100731.92;110074;1239;58262;-72
2023/08/08 03:52:01;;;;;;;3.30;1.90;;;;;;;16.48;100.00;100745.92;110034;1238;57768;-71
2023/08/08 03:54:30;;;;;;;4.10;2.30;;;;;;;16.54;100.00;100754.13;110085;1238;62726;-69
2023/08/08 03:57:00;;;;;;;3.00;1.90;;;;;;;16.59;100.00;100760.38;110025;1238;61494;-71
2023/08/08 03:59:29;;;;;;;3.50;2.20;;;;;;;16.58;100.00;100770.43;110024;1236;59761;-71
2023/08/08 04:01:58;;;;;;;2.70;2.00;;;;;;;16.59;100.00;100779.00;110080;1239;62247;-71
2023/08/08 04:04:27;;;;;;;3.50;2.20;;;;;;;16.60;100.00;100781.74;110067;1239;62858;-71
2023/08/08 04:06:57;;;;;;;4.10;2.40;;;;;;;16.64;100.00;100779.59;110283;1236;57763;-70
2023/08/08 04:09:25;;;;;;;5.80;2.30;;;;;;;16.68;100.00;100782.20;110149;1239;74256;-71
2023/08/08 04:11:54;;;;;;;4.00;2.30;;;;;;;16.76;100.00;100784.92;110055;1236;62053;-71
2023/08/08 04:14:23;;;;;;;3.80;1.90;;;;;;;16.84;100.00;100786.30;110081;1236;59314;-70
2023/08/08 04:16:52;;;;;;;5.80;2.60;;;;;;;16.99;100.00;100787.63;110174;1238;63602;-71
2023/08/08 04:19:21;;;;;;;10.20;2.90;;;;;;;17.15;100.00;100796.45;110239;1236;62055;-71
2023/08/08 04:21:49;;;;;;;9.90;3.40;;;;;;;17.13;100.00;100800.69;110299;1238;57742;-70
2023/08/08 04:24:18;;;;;;;6.10;2.90;;;;;;;17.08;100.00;100807.18;110207;1237;62707;-70
2023/08/08 04:26:47;;;;;;;7.40;3.20;;;;;;;16.98;100.00;100809.52;110136;1237;61660;-70
2023/08/08 04:29:15;;;;;;;6.70;3.00;;;;;;;16.90;100.00;100807.60;110106;1238;70356;-71
2023/08/08 04:31:44;;;;;;;5.90;3.40;;;;;;;16.89;100.00;100801.39;109998;1238;63795;-70
2023/08/08 04:34:13;;;;;;;4.70;3.10;;;;;;;16.85;100.00;100793.75;110097;1239;58320;-70
2023/08/08 04:36:42;;;;;;;6.50;3.60;;;;;;;16.82;100.00;100786.14;110094;1238;59475;-71
2023/08/08 04:39:10;;;;;;;7.40;3.30;;;;;;;16.80;100.00;100784.02;110106;1239;65323;-71
2023/08/08 04:41:39;;;;;;;8.70;3.70;;;;;;;16.78;100.00;100787.55;110154;1238;61617;-71
2023/08/08 04:44:08;;;;;;;6.80;3.40;;;;;;;16.83;100.00;100794.79;110085;1237;69379;-70
2023/08/08 04:46:36;;;;;;;6.50;3.60;;;;;;;16.90;100.00;100800.25;110045;1239;73148;-72
2023/08/08 04:49:05;;;;;;;10.20;4.20;;;;;;;16.97;100.00;100807.30;110025;1239;58393;-71
2023/08/08 04:51:34;;;;;;;7.30;3.20;;;;;;;17.07;100.00;100818.47;109969;1237;58290;-70
2023/08/08 04:54:03;;;;;;;6.00;3.00;;;;;;;17.18;100.00;100826.54;109959;1239;74961;-71
2023/08/08 04:56:32;;;;;;;6.50;3.40;;;;;;;17.23;100.00;100831.69;109946;1239;71788;-71
2023/08/08 04:59:00;;;;;;;7.50;3.70;;;;;;;17.25;100.00;100841.33;109916;1238;70197;-71
2023/08/08 05:01:29;;;;;;;8.50;3.20;;;;;;;17.30;100.00;100846.88;109908;1237;62913;-71
2023/08/08 05:03:58;;;;;;;7.90;3.40;;;;;;;17.32;100.00;100844.21;109907;1238;60763;-70
2023/08/08 05:06:26;;;;;;;6.60;3.20;;;;;;;17.37;100.00;100843.02;109945;1238;61563;-70
2023/08/08 05:08:56;;;;;;;11.20;3.00;;;;;;;17.48;100.00;100844.30;110022;1238;74737;-71
2023/08/08 05:11:25;;;;;;;6.30;2.80;;;;;;;17.58;100.00;100852.14;109998;1237;61143;-70
2023/08/08 05:13:54;;;;;;;7.00;3.40;;;;;;;17.68;100.00;100853.40;110046;1238;69451;-71
2023/08/08 05:16:24;;;;;;;6.10;3.70;;;;;;;17.70;100.00;100856.11;109826;1242;73435;-72
2023/08/08 05:18:53;;;;;;;9.20;3.80;;;;;;;17.68;100.00;100857.50;109961;1239;58342;-71
2023/08/08 05:21:22;;;;;;;8.00;2.80;;;;;;;17.72;100.00;100847.22;110136;1238;59877;-71
2023/08/08 05:23:50;;;;;;;5.80;3.00;;;;;;;17.78;100.00;100832.94;110079;1238;74638;-70
2023/08/08 05:26:19;;;;;;;9.50;3.60;;;;;;;17.77;100.00;100820.02;110159;1236;62137;-70
2023/08/08 05:28:48;;;;;;;10.80;3.80;;;;;;;17.77;100.00;100818.11;110143;1237;59187;-70
2023/08/08 05:31:17;;;;;;;6.70;3.70;;;;;;;17.88;100.00;100829.11;110129;1237;63018;-71
2023/08/08 05:33:48;;;;;;;11.70;3.80;;;;;;;18.03;100.00;100844.13;110112;1239;61229;-71
2023/08/08 05:36:17;;;;;;;13.20;4.40;;;;;;;18.14;100.00;100853.03;110042;1237;58366;-71
2023/08/08 05:38:47;;;;;;;11.20;4.80;;;;;;;18.21;100.00;100854.77;110137;1237;63663;-71
2023/08/08 05:41:15;;;;;;;7.90;3.70;;;;;;;18.31;100.00;100856.98;110111;1237;71203;-70
2023/08/08 05:43:44;;;;;;;5.80;3.00;;;;;;;18.36;100.00;100859.82;110120;1237;60424;-64
2023/08/08 05:46:13;;;;;;;4.90;1.90;;;;;;;18.45;100.00;100859.34;110189;1238;62317;-63
2023/08/08 05:48:42;;;;;;;4.30;1.60;;;;;;;18.60;100.00;100856.29;110192;1238;61704;-67
2023/08/08 05:51:11;;;;;;;4.20;1.90;;;;;;;18.73;100.00;100857.69;110116;1238;61392;-65
2023/08/08 05:53:39;;;;;;;8.20;2.50;;;;;;;18.93;100.00;100860.77;110039;1237;74683;-65
2023/08/08 05:56:08;;;;;;;9.80;2.30;;;;;;;19.13;100.00;100859.02;109955;1237;61977;-66
2023/08/08 05:58:37;;;;;;;8.60;2.90;;;;;;;19.23;100.00;100859.66;110185;1236;59242;-66
2023/08/08 06:01:09;;;;;;;9.50;2.50;;;;;;;19.45;100.00;100859.82;110029;1238;63039;-64
2023/08/08 06:03:38;;;;;;;5.60;2.20;;;;;;;19.52;100.00;100864.63;110157;1238;58172;-63
2023/08/08 06:06:07;;;;;;;3.40;1.80;;;;;;;19.59;100.00;100864.45;110242;1237;60183;-63
2023/08/08 06:08:35;;;;;;;2.80;1.90;;;;;;;19.63;100.00;100862.80;110096;1238;72955;-63
2023/08/08 06:11:04;;;;;;;6.30;2.80;;;;;;;19.61;100.00;100862.73;110135;1236;61812;-63
2023/08/08 06:13:33;;;;;;;7.70;3.60;;;;;;;19.58;100.00;100857.86;110091;1238;70129;-66
2023/08/08 06:16:06;;;;;;;6.40;2.90;;;;;;;19.56;100.00;100861.09;110156;1237;74858;-63
2023/08/08 06:18:35;;;;;;;5.50;2.80;;;;;;;19.73;100.00;100865.95;109765;1238;61660;-65
2023/08/08 06:21:04;;;;;;;5.50;2.80;;;;;;;19.72;100.00;100860.64;110143;1238;60519;-65
2023/08/08 06:23:32;;;;;;;4.30;2.40;;;;;;;19.71;100.00;100864.61;109979;1238;74688;-65
2023/08/08 06:26:01;;;;;;;5.60;2.70;;;;;;;19.71;100.00;100866.16;110078;1237;72526;-64
2023/08/08 06:28:30;;;;;;;3.60;2.10;;;;;;;19.66;100.00;100867.26;110246;1236;58970;-64
2023/08/08 06:30:59;;;;;;;4.20;1.80;;;;;;;19.84;100.00;100864.17;110092;1237;62466;-65
2023/08/08 06:33:28;;;;;;;3.50;1.30;;;;;;;20.02;100.00;100869.39;110112;1237;60933;-66
2023/08/08 06:35:57;;;;;;;3.70;1.30;;;;;;;20.04;100.00;100884.55;110172;1237;61089;-72
2023/08/08 06:38:25;;;;;;;3.40;1.20;;;;;;;19.96;100.00;100882.89;110035;1237;73926;-67
2023/08/08 06:40:56;;;;;;;3.10;1.70;;;;;;;19.98;100.00;100879.30;110203;1237;61266;-70
2023/08/08 06:43:24;;;;;;;2.30;1.30;;;;;;;19.82;100.00;100868.20;110194;1236;61430;-72
2023/08/08 06:45:53;;;;;;;3.60;1.80;;;;;;;19.85;100.00;100868.92;110090;1237;62246;-69
2023/08/08 06:48:22;;;;;;;2.10;1.40;;;;;;;19.70;100.00;100871.11;110095;1238;60103;-69
2023/08/08 06:50:51;;;;;;;2.40;1.40;;;;;;;19.81;98.92;100871.61;110067;1238;57820;-67
2023/08/08 06:53:20;;;;;;;2.90;1.30;;;;;;;19.85;99.11;100871.34;110077;1237;73499;-68
2023/08/08 06:55:48;;;;;;;2.00;1.20;;;;;;;20.06;98.94;100890.67;110062;1237;71745;-67
2023/08/08 06:58:17;;;;;;;1.90;1.20;;;;;;;20.15;98.14;100903.29;110139;1236;61215;-72
2023/08/08 07:00:46;;;;;;;2.40;1.10;;;;;;;20.33;95.92;100904.73;110068;1239;63095;-65
2023/08/08 07:03:15;;;;;;;1.60;1.00;;;;;;;20.48;95.14;100899.97;110200;1236;59375;-75
2023/08/08 07:05:44;;;;;;;3.10;1.10;;;;;;;20.55;93.76;100896.15;110191;1238;60596;-67
2023/08/08 07:08:13;;;;;;;2.90;1.50;;;;;;;20.62;92.28;100890.64;110088;1236;74840;-66
2023/08/08 07:10:41;;;;;;;2.90;1.00;;;;;;;20.67;91.56;100889.23;110082;1237;63742;-63
2023/08/08 07:13:10;;;;;;;3.40;2.00;;;;;;;20.72;90.31;100885.50;110028;1237;58981;-62
2023/08/08 07:15:39;;;;;;;2.40;1.20;;;;;;;20.62;88.60;100888.98;110103;1236;63387;-63
2023/08/08 07:18:08;;;;;;;2.10;1.00;;;;;;;20.90;88.67;100889.27;110141;1236;60690;-63
2023/08/08 07:20:39;;;;;;;2.20;1.20;;;;;;;21.09;87.67;100895.73;110153;1236;58209;-64
2023/08/08 07:23:07;;;;;;;3.20;1.20;;;;;;;21.05;85.19;100906.93;110115;1236;73439;-63
2023/08/08 07:25:36;;;;;;;3.00;1.20;;;;;;;21.21;84.54;100914.55;110176;1236;62115;-64
2023/08/08 07:28:05;;;;;;;3.40;1.00;;;;;;;21.31;83.39;100920.55;110001;1238;59761;-63
2023/08/08 07:30:34;;;;;;;3.10;1.30;;;;;;;21.48;82.77;100923.02;110047;1238;73835;-62
2023/08/08 07:33:03;;;;;;;2.60;1.20;;;;;;;21.61;82.36;100922.25;110083;1237;60450;-64
2023/08/08 07:35:33;;;;;;;3.30;1.10;;;;;;;21.63;81.84;100925.70;110148;1236;61604;-63
2023/08/08 07:38:02;;;;;;;4.90;1.10;;;;;;;21.40;82.14;100923.69;110055;1236;74832;-63
2023/08/08 07:40:31;;;;;;;2.70;1.20;;;;;;;21.67;82.22;100927.04;110104;1237;72512;-64
2023/08/08 07:43:00;;;;;;;2.90;1.10;;;;;;;21.80;81.74;100923.99;110132;1237;68336;-64
2023/08/08 07:45:29;;;;;;;1.80;0.90;;;;;;;21.90;81.72;100924.31;110136;1238;73100;-63
2023/08/08 07:47:58;;;;;;;6.00;1.10;;;;;;;21.72;80.53;100930.38;110144;1238;60711;-63
2023/08/08 07:50:27;;;;;;;1.60;1.10;;;;;;;21.64;81.21;100935.88;110204;1238;57766;-63
2023/08/08 07:52:56;;;;;;;3.30;0.80;;;;;;;21.90;79.14;100939.16;110130;1236;62916;-65
2023/08/08 07:55:25;;;;;;;1.70;0.90;;;;;;;21.81;75.51;100934.62;110172;1237;71799;-65
2023/08/08 07:57:53;;;;;;;2.50;1.00;;;;;;;21.60;75.67;100931.61;110004;1237;70997;-63
2023/08/08 08:00:22;;;;;;;2.00;0.90;;;;;;;21.60;76.04;100931.70;110210;1237;64466;-65
2023/08/08 08:02:51;;;;;;;2.80;1.30;;;;;;;21.70;77.48;100930.92;110176;1237;60903;-66
2023/08/08 08:05:20;;;;;;;2.30;0.90;;;;;;;21.85;76.77;100926.11;110146;1239;57771;-63
2023/08/08 08:07:49;;;;;;;4.40;1.00;;;;;;;21.74;76.46;100931.86;110198;1238;64107;-62
2023/08/08 08:10:18;;;;;;;2.40;0.90;;;;;;;21.61;77.45;100924.02;110049;1237;70682;-64
2023/08/08 08:12:46;;;;;;;2.20;1.00;;;;;;;21.57;78.49;100926.98;110176;1236;70702;-63
2023/08/08 08:15:15;;;;;;;1.70;0.80;;;;;;;21.66;77.52;100925.34;110142;1236;63903;-63
2023/08/08 08:17:44;;;;;;;1.80;1.00;;;;;;;21.58;77.36;100919.48;110158;1238;57812;-63
2023/08/08 08:20:15;;;;;;;1.30;0.70;;;;;;;21.77;77.54;100918.94;110015;1239;57740;-63
2023/08/08 08:22:44;;;;;;;3.90;0.80;;;;;;;21.84;76.59;100916.52;110094;1237;64551;-63
2023/08/08 08:25:14;;;;;;;1.50;0.90;;;;;;;21.79;74.82;100906.66;109851;1238;62187;-63
2023/08/08 08:27:43;;;;;;;1.90;1.00;;;;;;;21.69;75.69;100895.29;110119;1238;59743;-63
2023/08/08 08:30:12;;;;;;;2.30;1.10;;;;;;;21.50;75.59;100891.36;110098;1237;73019;-62
2023/08/08 08:32:42;;;;;;;1.90;0.90;;;;;;;21.58;76.43;100896.86;110112;1238;58332;-64
2023/08/08 08:35:12;;;;;;;2.20;0.80;;;;;;;21.56;76.88;100904.23;109981;1236;61118;-64
2023/08/08 08:37:41;;;;;;;2.80;0.90;;;;;;;21.39;77.03;100912.70;110169;1237;64072;-64
2023/08/08 08:40:11;;;;;;;2.60;1.00;;;;;;;21.32;78.34;100912.97;110090;1238;60726;-66
2023/08/08 08:42:40;;;;;;;2.20;0.90;;;;;;;21.34;79.51;100918.75;110010;1238;69724;-64
2023/08/08 08:45:11;;;;;;;1.30;0.80;;;;;;;21.38;78.89;100916.44;109941;1237;65228;-64
2023/08/08 08:47:44;;;;;;;1.40;0.80;;;;;;;21.26;79.64;100922.89;110062;1237;60697;-64
2023/08/08 08:50:15;;;;;;;3.30;1.20;;;;;;;20.99;81.34;100926.36;110062;1237;61574;-64
2023/08/08 08:52:44;;;;;;;3.60;1.40;;;;;;;21.32;80.49;100917.41;110006;1237;74760;-64
2023/08/08 08:55:13;;;;;;;3.90;1.10;;;;;;;21.37;80.37;100926.94;110027;1239;61458;-63
2023/08/08 08:57:44;;;;;;;5.50;1.10;;;;;;;21.59;79.79;100929.59;110025;1238;59604;-63
2023/08/08 09:00:13;;;;;;;3.40;1.10;;;;;;;21.84;78.67;100928.09;109964;1241;63160;-64
2023/08/08 09:02:45;;;;;;;2.40;1.30;;;;;;;21.89;77.86;100924.19;110192;1236;61126;-66
2023/08/08 09:05:21;;;;;;;4.90;1.50;;;;;;;22.23;78.39;100926.95;109992;1241;58291;-65
2023/08/08 09:07:51;;;;;;;8.50;2.00;;;;;;;22.53;77.61;100935.30;110167;1237;63844;-65
2023/08/08 09:10:20;;;;;;;4.80;1.30;;;;;;;22.64;77.26;100936.88;109647;1238;432244;-64
2023/08/08 09:12:49;;;;;;;2.80;1.10;;;;;;;22.57;76.39;100931.33;110112;1236;70829;-64
2023/08/08 09:15:18;;;;;;;3.40;1.00;;;;;;;22.63;76.10;100931.80;109955;1237;73745;-64
2023/08/08 09:17:47;;;;;;;4.00;1.10;;;;;;;22.56;75.59;100936.77;109949;1237;60589;-63
2023/08/08 09:20:17;;;;;;;2.00;1.00;;;;;;;22.46;76.12;100934.45;110068;1238;57773;-63
2023/08/08 09:22:46;;;;;;;2.80;1.20;;;;;;;22.19;76.42;100937.43;109992;1240;64283;-62
2023/08/08 09:25:15;;;;;;;2.90;0.90;;;;;;;22.17;77.23;100940.34;110114;1236;61439;-63
2023/08/08 09:27:44;;;;;;;2.20;0.90;;;;;;;22.39;74.88;100951.92;110160;1238;70386;-62
2023/08/08 09:30:13;;;;;;;2.40;0.80;;;;;;;22.29;74.65;100948.79;110055;1238;74337;-62
2023/08/08 09:32:44;;;;;;;2.50;0.70;;;;;;;22.41;74.04;100953.41;109994;1237;57715;-63
2023/08/08 09:35:14;;;;;;;4.10;1.10;;;;;;;22.58;74.52;100943.83;110071;1239;61111;-63
2023/08/08 09:37:43;;;;;;;2.80;1.00;;;;;;;22.72;73.54;100948.88;110171;1239;65165;-63
2023/08/08 09:40:12;;;;;;;5.00;1.00;;;;;;;22.62;72.87;100950.27;110170;1238;61318;-63
2023/08/08 09:42:42;;;;;;;1.80;0.90;;;;;;;22.63;73.30;100950.66;110044;1239;59771;-64
2023/08/08 09:45:10;;;;;;;3.00;0.90;;;;;;;22.37;73.74;100950.91;110018;1237;73830;-61
2023/08/08 09:47:39;;;;;;;2.40;1.10;;;;;;;22.54;73.68;100949.83;109964;1241;58186;-61
2023/08/08 09:50:08;;;;;;;2.30;0.90;;;;;;;22.57;73.19;100952.25;110119;1238;58260;-61
2023/08/08 09:52:38;;;;;;;1.40;0.60;;;;;;;22.78;71.18;100956.77;109957;1238;63078;-63
2023/08/08 09:55:09;;;;;;;0.70;0.60;;;;;;;22.77;68.47;100960.08;110185;1237;72462;-62
2023/08/08 09:57:42;;;;;;;1.00;0.60;;;;;;;22.75;66.43;100957.70;110221;1238;60414;-61
2023/08/08 10:00:15;;;;;;;2.20;0.80;;;;;;;22.38;65.97;100956.68;110025;1236;72941;-63
2023/08/08 10:02:46;;;;;;;2.30;0.70;;;;;;;22.43;66.82;100954.12;110153;1238;59799;-64
2023/08/08 10:05:15;;;;;;;1.50;0.70;;;;;;;22.53;67.37;100956.10;110191;1238;57868;-64
2023/08/08 10:07:45;;;;;;;2.00;0.90;;;;;;;22.36;67.40;100952.73;109816;1238;74360;-65
2023/08/08 10:10:15;;;;;;;3.30;0.80;;;;;;;22.29;68.49;100958.07;110185;1238;61588;-63
2023/08/08 10:12:44;;;;;;;2.10;0.70;;;;;;;22.43;68.13;100957.33;110107;1236;59494;-64
2023/08/08 10:15:13;;;;;;;3.30;0.80;;;;;;;22.48;68.29;100954.79;110074;1238;62419;-64
2023/08/08 10:17:42;;;;;;;6.00;2.10;;;;;;;22.57;68.53;100951.69;110167;1238;58268;-64
2023/08/08 10:20:12;;;;;;;2.20;0.90;;;;;;;22.67;68.39;100949.15;110100;1237;58357;-67
2023/08/08 10:22:46;;;;;;;2.30;0.80;;;;;;;22.80;68.16;100949.13;109851;1237;64279;-64
2023/08/08 10:25:30;;;;;;;3.40;1.20;;;;;;;22.89;67.80;100957.13;110116;1238;62299;-64
2023/08/08 10:28:08;;;;;;;1.80;0.70;;;;;;;22.95;66.13;100961.14;109792;1238;69799;-64
2023/08/08 10:30:54;;;;;;;1.40;0.70;;;;;;;22.85;67.00;100957.77;110018;1239;63269;-66
2023/08/08 10:33:27;;;;;;;2.00;0.80;;;;;;;22.95;66.49;100955.88;110128;1238;58277;-64
2023/08/08 10:35:56;;;;;;;2.50;0.80;;;;;;;22.86;66.94;100953.90;110134;1237;57866;-64
2023/08/08 10:38:27;;;;;;;4.10;1.00;;;;;;;22.79;67.74;100956.38;110113;1237;74068;-66
2023/08/08 10:40:59;;;;;;;3.60;0.90;;;;;;;22.77;67.92;100956.05;110054;1237;61191;-64
2023/08/08 10:43:30;;;;;;;4.30;1.10;;;;;;;22.88;67.72;100950.88;109973;1237;60341;-64
2023/08/08 10:46:03;;;;;;;4.30;1.20;;;;;;;22.62;70.19;100944.94;109864;1237;73619;-65
2023/08/08 10:48:59;;;;;;;5.10;1.10;;;;;;;22.56;71.08;100941.35;109852;1238;61638;-65
2023/08/08 10:51:42;;;;;;;2.70;0.90;;;;;;;22.79;68.90;100945.36;109893;1238;57745;-65
2023/08/08 10:54:17;;;;;;;2.50;1.00;;;;;;;22.44;70.22;100942.78;109848;1237;74261;-65
2023/08/08 10:56:54;;;;;;;1.90;0.90;;;;;;;22.66;68.63;100942.17;110007;1237;63823;-67
2023/08/08 10:59:26;;;;;;;1.50;0.70;;;;;;;22.70;67.62;100931.66;109904;1237;70675;-68
2023/08/08 11:01:56;;;;;;;2.00;0.70;;;;;;;22.74;65.47;100937.25;109882;1238;63700;-65
2023/08/08 11:04:26;;;;;;;3.80;1.70;;;;;;;22.85;65.16;100952.64;110011;1238;60355;-69
2023/08/08 11:06:56;;;;;;;6.80;3.90;;;;;;;22.69;65.30;100953.58;110028;1237;57760;-68
2023/08/08 11:09:26;;;;;;;10.30;3.00;;;;;;;22.98;66.01;100956.34;109912;1237;62814;-65
2023/08/08 11:11:54;;;;;;;3.20;0.70;;;;;;;23.04;66.26;100955.15;110045;1238;72140;-64
2023/08/08 11:14:24;;;;;;;2.30;0.60;;;;;;;23.35;66.04;100952.77;110060;1238;70703;-66
2023/08/08 11:16:53;;;;;;;3.40;0.90;;;;;;;23.51;65.64;100954.95;109843;1241;74219;-66
2023/08/08 11:19:23;;;;;;;1.50;0.60;;;;;;;23.86;66.35;100956.25;110125;1236;57807;-67
2023/08/08 11:21:52;;;;;;;2.90;1.00;;;;;;;23.79;64.42;100955.48;110066;1237;58202;-68
2023/08/08 11:24:21;;;;;;;1.60;0.70;;;;;;;23.63;64.04;100953.56;110026;1238;73519;-66